sensor_id;sensor_type;location;lat;lon;timestamp;P1;durP1;ratioP1;P2;durP2;ratioP2
23684;SDS011;12020;51.384;6.908;2022-08-26T00:00:50;8.68;;;7.88;;
23684;SDS011;12020;51.384;6.908;2022-08-26T00:03:18;8.73;;;7.90;;
23684;SDS011;12020;51.384;6.908;2022-08-26T00:05:47;8.88;;;7.97;;
23684;SDS011;12020;51.384;6.908;2022-08-26T00:08:16;8.10;;;7.40;;
23684;SDS011;12020;51.384;6.908;2022-08-26T00:10:44;8.98;;;8.07;;
23684;SDS011;12020;51.384;6.908;2022-08-26T00:13:12;8.88;;;7.97;;
23684;SDS011;12020;51.384;6.908;2022-08-26T00:15:38;8.85;;;8.05;;
23684;SDS011;12020;51.384;6.908;2022-08-26T00:18:04;8.83;;;8.03;;
23684;SDS011;12020;51.384;6.908;2022-08-26T00:20:31;8.32;;;7.53;;
23684;SDS011;12020;51.384;6.908;2022-08-26T00:22:58;8.48;;;7.65;;
23684;SDS011;12020;51.384;6.908;2022-08-26T00:25:27;8.70;;;7.90;;
23684;SDS011;12020;51.384;6.908;2022-08-26T00:27:54;11.57;;;8.47;;
23684;SDS011;12020;51.384;6.908;2022-08-26T00:30:23;9.57;;;8.43;;
23684;SDS011;12020;51.384;6.908;2022-08-26T00:32:53;9.25;;;8.32;;
23684;SDS011;12020;51.384;6.908;2022-08-26T00:35:21;9.35;;;8.45;;
23684;SDS011;12020;51.384;6.908;2022-08-26T00:37:50;8.88;;;8.07;;
23684;SDS011;12020;51.384;6.908;2022-08-26T00:40:21;9.68;;;8.77;;
23684;SDS011;12020;51.384;6.908;2022-08-26T00:42:50;9.15;;;8.25;;
23684;SDS011;12020;51.384;6.908;2022-08-26T00:45:17;9.30;;;8.50;;
23684;SDS011;12020;51.384;6.908;2022-08-26T00:47:48;9.60;;;8.70;;
23684;SDS011;12020;51.384;6.908;2022-08-26T00:50:19;9.45;;;8.50;;
23684;SDS011;12020;51.384;6.908;2022-08-26T00:52:49;10.00;;;9.00;;
23684;SDS011;12020;51.384;6.908;2022-08-26T00:55:22;9.77;;;8.68;;
23684;SDS011;12020;51.384;6.908;2022-08-26T00:57:59;9.45;;;8.63;;
23684;SDS011;12020;51.384;6.908;2022-08-26T01:00:28;9.23;;;8.25;;
23684;SDS011;12020;51.384;6.908;2022-08-26T01:02:59;9.52;;;8.63;;
23684;SDS011;12020;51.384;6.908;2022-08-26T01:05:27;9.73;;;8.73;;
23684;SDS011;12020;51.384;6.908;2022-08-26T01:07:54;10.68;;;9.38;;
23684;SDS011;12020;51.384;6.908;2022-08-26T01:10:23;9.20;;;8.35;;
23684;SDS011;12020;51.384;6.908;2022-08-26T01:12:55;12.77;;;8.85;;
23684;SDS011;12020;51.384;6.908;2022-08-26T01:15:26;9.80;;;8.80;;
23684;SDS011;12020;51.384;6.908;2022-08-26T01:17:56;9.80;;;8.90;;
23684;SDS011;12020;51.384;6.908;2022-08-26T01:20:33;9.68;;;8.77;;
23684;SDS011;12020;51.384;6.908;2022-08-26T01:23:24;10.02;;;9.05;;
23684;SDS011;12020;51.384;6.908;2022-08-26T01:25:54;9.55;;;8.45;;
23684;SDS011;12020;51.384;6.908;2022-08-26T01:28:29;10.20;;;9.20;;
23684;SDS011;12020;51.384;6.908;2022-08-26T01:31:00;10.55;;;9.55;;
23684;SDS011;12020;51.384;6.908;2022-08-26T01:36:24;10.38;;;9.38;;
23684;SDS011;12020;51.384;6.908;2022-08-26T01:38:49;10.70;;;9.60;;
23684;SDS011;12020;51.384;6.908;2022-08-26T01:41:15;11.60;;;10.50;;
23684;SDS011;12020;51.384;6.908;2022-08-26T01:43:43;11.80;;;10.53;;
23684;SDS011;12020;51.384;6.908;2022-08-26T01:46:11;12.55;;;10.73;;
23684;SDS011;12020;51.384;6.908;2022-08-26T01:48:38;11.87;;;10.83;;
23684;SDS011;12020;51.384;6.908;2022-08-26T01:51:08;11.75;;;10.60;;
23684;SDS011;12020;51.384;6.908;2022-08-26T01:53:36;11.25;;;10.15;;
23684;SDS011;12020;51.384;6.908;2022-08-26T01:56:04;12.50;;;11.30;;
23684;SDS011;12020;51.384;6.908;2022-08-26T01:58:37;12.35;;;11.02;;
23684;SDS011;12020;51.384;6.908;2022-08-26T02:01:07;12.80;;;11.70;;
23684;SDS011;12020;51.384;6.908;2022-08-26T02:03:34;12.82;;;11.70;;
23684;SDS011;12020;51.384;6.908;2022-08-26T02:06:06;14.70;;;13.23;;
23684;SDS011;12020;51.384;6.908;2022-08-26T02:08:38;15.32;;;13.90;;
23684;SDS011;12020;51.384;6.908;2022-08-26T02:13:41;15.20;;;13.80;;
23684;SDS011;12020;51.384;6.908;2022-08-26T02:16:10;16.27;;;14.77;;
23684;SDS011;12020;51.384;6.908;2022-08-26T02:18:39;17.23;;;15.52;;
23684;SDS011;12020;51.384;6.908;2022-08-26T02:21:10;17.37;;;15.87;;
23684;SDS011;12020;51.384;6.908;2022-08-26T02:23:37;17.38;;;15.80;;
23684;SDS011;12020;51.384;6.908;2022-08-26T02:26:18;19.45;;;17.65;;
23684;SDS011;12020;51.384;6.908;2022-08-26T02:28:54;20.48;;;18.58;;
23684;SDS011;12020;51.384;6.908;2022-08-26T02:31:25;20.30;;;18.40;;
23684;SDS011;12020;51.384;6.908;2022-08-26T02:33:52;21.67;;;19.70;;
23684;SDS011;12020;51.384;6.908;2022-08-26T02:36:20;24.33;;;22.02;;
23684;SDS011;12020;51.384;6.908;2022-08-26T02:38:49;26.05;;;23.58;;
23684;SDS011;12020;51.384;6.908;2022-08-26T02:41:17;26.20;;;23.73;;
23684;SDS011;12020;51.384;6.908;2022-08-26T02:43:43;31.40;;;28.67;;
23684;SDS011;12020;51.384;6.908;2022-08-26T02:46:09;31.63;;;28.88;;
23684;SDS011;12020;51.384;6.908;2022-08-26T02:51:04;32.00;;;29.10;;
23684;SDS011;12020;51.384;6.908;2022-08-26T02:53:30;32.88;;;29.88;;
23684;SDS011;12020;51.384;6.908;2022-08-26T02:55:56;35.80;;;32.58;;
23684;SDS011;12020;51.384;6.908;2022-08-26T02:58:23;38.10;;;34.70;;
23684;SDS011;12020;51.384;6.908;2022-08-26T03:00:49;37.10;;;33.88;;
23684;SDS011;12020;51.384;6.908;2022-08-26T03:03:15;38.58;;;35.22;;
23684;SDS011;12020;51.384;6.908;2022-08-26T03:05:42;48.13;;;44.13;;
23684;SDS011;12020;51.384;6.908;2022-08-26T03:08:08;48.63;;;44.55;;
23684;SDS011;12020;51.384;6.908;2022-08-26T03:10:36;56.38;;;51.22;;
23684;SDS011;12020;51.384;6.908;2022-08-26T03:13:04;58.80;;;53.40;;
23684;SDS011;12020;51.384;6.908;2022-08-26T03:15:29;56.03;;;50.93;;
23684;SDS011;12020;51.384;6.908;2022-08-26T03:17:56;57.55;;;52.35;;
23684;SDS011;12020;51.384;6.908;2022-08-26T03:20:28;58.38;;;53.17;;
23684;SDS011;12020;51.384;6.908;2022-08-26T03:22:53;56.90;;;51.80;;
23684;SDS011;12020;51.384;6.908;2022-08-26T03:27:52;54.60;;;49.55;;
23684;SDS011;12020;51.384;6.908;2022-08-26T03:30:19;54.92;;;50.08;;
23684;SDS011;12020;51.384;6.908;2022-08-26T03:33:03;52.10;;;47.42;;
23684;SDS011;12020;51.384;6.908;2022-08-26T03:35:31;52.88;;;48.20;;
23684;SDS011;12020;51.384;6.908;2022-08-26T03:37:59;53.85;;;49.10;;
23684;SDS011;12020;51.384;6.908;2022-08-26T03:40:28;52.03;;;47.42;;
23684;SDS011;12020;51.384;6.908;2022-08-26T03:42:53;54.58;;;49.67;;
23684;SDS011;12020;51.384;6.908;2022-08-26T03:45:19;61.58;;;55.60;;
23684;SDS011;12020;51.384;6.908;2022-08-26T03:47:46;60.65;;;55.13;;
23684;SDS011;12020;51.384;6.908;2022-08-26T03:50:17;59.83;;;54.17;;
23684;SDS011;12020;51.384;6.908;2022-08-26T03:52:45;63.22;;;57.17;;
23684;SDS011;12020;51.384;6.908;2022-08-26T03:55:12;62.15;;;56.35;;
23684;SDS011;12020;51.384;6.908;2022-08-26T03:57:40;61.10;;;55.47;;
23684;SDS011;12020;51.384;6.908;2022-08-26T04:00:08;62.17;;;56.42;;
23684;SDS011;12020;51.384;6.908;2022-08-26T04:02:39;63.85;;;57.83;;
23684;SDS011;12020;51.384;6.908;2022-08-26T04:05:08;63.28;;;57.30;;
23684;SDS011;12020;51.384;6.908;2022-08-26T04:07:36;63.95;;;58.10;;
23684;SDS011;12020;51.384;6.908;2022-08-26T04:10:02;64.18;;;58.28;;
23684;SDS011;12020;51.384;6.908;2022-08-26T04:12:30;63.03;;;57.03;;
23684;SDS011;12020;51.384;6.908;2022-08-26T04:14:57;61.25;;;55.58;;
23684;SDS011;12020;51.384;6.908;2022-08-26T04:17:23;61.70;;;56.03;;
23684;SDS011;12020;51.384;6.908;2022-08-26T04:19:52;58.60;;;53.22;;
23684;SDS011;12020;51.384;6.908;2022-08-26T04:22:19;59.45;;;53.90;;
23684;SDS011;12020;51.384;6.908;2022-08-26T04:24:45;58.83;;;53.53;;
23684;SDS011;12020;51.384;6.908;2022-08-26T04:27:10;60.20;;;54.55;;
23684;SDS011;12020;51.384;6.908;2022-08-26T04:29:36;57.47;;;52.08;;
23684;SDS011;12020;51.384;6.908;2022-08-26T04:34:36;57.15;;;51.83;;
23684;SDS011;12020;51.384;6.908;2022-08-26T04:37:02;56.35;;;51.00;;
23684;SDS011;12020;51.384;6.908;2022-08-26T04:39:31;56.92;;;51.78;;
23684;SDS011;12020;51.384;6.908;2022-08-26T04:41:57;58.00;;;52.60;;
23684;SDS011;12020;51.384;6.908;2022-08-26T04:44:26;57.42;;;52.03;;
23684;SDS011;12020;51.384;6.908;2022-08-26T04:46:54;55.22;;;50.03;;
23684;SDS011;12020;51.384;6.908;2022-08-26T04:49:21;56.67;;;51.30;;
23684;SDS011;12020;51.384;6.908;2022-08-26T04:51:47;55.65;;;50.35;;
23684;SDS011;12020;51.384;6.908;2022-08-26T04:54:13;55.97;;;50.67;;
23684;SDS011;12020;51.384;6.908;2022-08-26T04:59:12;54.80;;;49.67;;
23684;SDS011;12020;51.384;6.908;2022-08-26T05:01:46;54.55;;;49.13;;
23684;SDS011;12020;51.384;6.908;2022-08-26T05:04:14;55.70;;;50.17;;
23684;SDS011;12020;51.384;6.908;2022-08-26T05:06:41;56.20;;;50.50;;
23684;SDS011;12020;51.384;6.908;2022-08-26T05:09:06;56.70;;;51.30;;
23684;SDS011;12020;51.384;6.908;2022-08-26T05:11:32;58.53;;;52.73;;
23684;SDS011;12020;51.384;6.908;2022-08-26T05:13:58;59.83;;;53.93;;
23684;SDS011;12020;51.384;6.908;2022-08-26T05:16:25;63.33;;;57.17;;
23684;SDS011;12020;51.384;6.908;2022-08-26T05:18:51;64.30;;;58.00;;
23684;SDS011;12020;51.384;6.908;2022-08-26T05:21:20;66.32;;;59.50;;
23684;SDS011;12020;51.384;6.908;2022-08-26T05:23:47;66.18;;;59.67;;
23684;SDS011;12020;51.384;6.908;2022-08-26T05:26:15;66.03;;;59.53;;
23684;SDS011;12020;51.384;6.908;2022-08-26T05:28:41;67.13;;;60.47;;
23684;SDS011;12020;51.384;6.908;2022-08-26T05:31:27;67.38;;;60.63;;
23684;SDS011;12020;51.384;6.908;2022-08-26T05:33:55;65.82;;;58.90;;
23684;SDS011;12020;51.384;6.908;2022-08-26T05:36:23;69.35;;;62.20;;
23684;SDS011;12020;51.384;6.908;2022-08-26T05:38:54;68.93;;;61.72;;
23684;SDS011;12020;51.384;6.908;2022-08-26T05:41:27;66.03;;;59.10;;
23684;SDS011;12020;51.384;6.908;2022-08-26T05:43:56;64.70;;;58.03;;
23684;SDS011;12020;51.384;6.908;2022-08-26T05:46:23;63.25;;;56.50;;
23684;SDS011;12020;51.384;6.908;2022-08-26T05:48:50;62.10;;;55.67;;
23684;SDS011;12020;51.384;6.908;2022-08-26T05:51:17;61.55;;;55.45;;
23684;SDS011;12020;51.384;6.908;2022-08-26T05:53:43;55.63;;;50.13;;
23684;SDS011;12020;51.384;6.908;2022-08-26T05:56:09;52.73;;;47.33;;
23684;SDS011;12020;51.384;6.908;2022-08-26T05:58:37;53.15;;;47.80;;
23684;SDS011;12020;51.384;6.908;2022-08-26T06:01:05;50.45;;;45.20;;
23684;SDS011;12020;51.384;6.908;2022-08-26T06:03:44;49.20;;;44.03;;
23684;SDS011;12020;51.384;6.908;2022-08-26T06:06:15;47.75;;;43.00;;
23684;SDS011;12020;51.384;6.908;2022-08-26T06:08:46;48.40;;;43.67;;
23684;SDS011;12020;51.384;6.908;2022-08-26T06:11:13;44.92;;;40.40;;
23684;SDS011;12020;51.384;6.908;2022-08-26T06:13:41;44.97;;;40.55;;
23684;SDS011;12020;51.384;6.908;2022-08-26T06:16:08;46.17;;;41.50;;
23684;SDS011;12020;51.384;6.908;2022-08-26T06:18:37;44.30;;;39.97;;
23684;SDS011;12020;51.384;6.908;2022-08-26T06:21:14;44.30;;;39.73;;
23684;SDS011;12020;51.384;6.908;2022-08-26T06:23:57;43.57;;;39.30;;
23684;SDS011;12020;51.384;6.908;2022-08-26T06:26:47;42.33;;;38.20;;
23684;SDS011;12020;51.384;6.908;2022-08-26T06:29:17;42.40;;;38.47;;
23684;SDS011;12020;51.384;6.908;2022-08-26T06:31:44;45.80;;;41.42;;
23684;SDS011;12020;51.384;6.908;2022-08-26T06:34:09;45.67;;;41.07;;
23684;SDS011;12020;51.384;6.908;2022-08-26T06:36:39;46.20;;;41.22;;
23684;SDS011;12020;51.384;6.908;2022-08-26T06:39:08;43.22;;;38.92;;
23684;SDS011;12020;51.384;6.908;2022-08-26T06:41:35;41.42;;;37.38;;
23684;SDS011;12020;51.384;6.908;2022-08-26T06:44:03;42.53;;;38.35;;
23684;SDS011;12020;51.384;6.908;2022-08-26T06:46:39;39.75;;;35.85;;
23684;SDS011;12020;51.384;6.908;2022-08-26T06:49:09;40.13;;;36.28;;
23684;SDS011;12020;51.384;6.908;2022-08-26T06:51:38;40.97;;;36.92;;
23684;SDS011;12020;51.384;6.908;2022-08-26T06:54:05;43.58;;;39.17;;
23684;SDS011;12020;51.384;6.908;2022-08-26T06:56:33;45.22;;;40.53;;
23684;SDS011;12020;51.384;6.908;2022-08-26T06:59:12;47.38;;;42.33;;
23684;SDS011;12020;51.384;6.908;2022-08-26T07:01:41;44.95;;;40.45;;
23684;SDS011;12020;51.384;6.908;2022-08-26T07:04:12;44.10;;;39.60;;
23684;SDS011;12020;51.384;6.908;2022-08-26T07:06:39;45.55;;;41.17;;
23684;SDS011;12020;51.384;6.908;2022-08-26T07:09:07;44.77;;;40.17;;
23684;SDS011;12020;51.384;6.908;2022-08-26T07:11:35;45.70;;;41.10;;
23684;SDS011;12020;51.384;6.908;2022-08-26T07:14:02;48.97;;;44.10;;
23684;SDS011;12020;51.384;6.908;2022-08-26T07:16:29;49.00;;;44.07;;
23684;SDS011;12020;51.384;6.908;2022-08-26T07:18:54;47.72;;;43.03;;
23684;SDS011;12020;51.384;6.908;2022-08-26T07:21:21;51.17;;;46.08;;
23684;SDS011;12020;51.384;6.908;2022-08-26T07:23:48;51.93;;;46.63;;
23684;SDS011;12020;51.384;6.908;2022-08-26T07:26:16;50.00;;;44.90;;
23684;SDS011;12020;51.384;6.908;2022-08-26T07:28:44;49.38;;;44.40;;
23684;SDS011;12020;51.384;6.908;2022-08-26T07:31:13;50.17;;;45.08;;
23684;SDS011;12020;51.384;6.908;2022-08-26T07:33:39;49.58;;;44.65;;
23684;SDS011;12020;51.384;6.908;2022-08-26T07:36:06;49.67;;;44.63;;
23684;SDS011;12020;51.384;6.908;2022-08-26T07:38:34;48.58;;;43.88;;
23684;SDS011;12020;51.384;6.908;2022-08-26T07:41:01;47.55;;;42.90;;
23684;SDS011;12020;51.384;6.908;2022-08-26T07:43:27;45.70;;;41.40;;
23684;SDS011;12020;51.384;6.908;2022-08-26T07:45:55;46.30;;;41.97;;
23684;SDS011;12020;51.384;6.908;2022-08-26T07:48:22;48.38;;;43.47;;
23684;SDS011;12020;51.384;6.908;2022-08-26T07:50:50;49.00;;;44.38;;
23684;SDS011;12020;51.384;6.908;2022-08-26T07:53:37;47.85;;;43.13;;
23684;SDS011;12020;51.384;6.908;2022-08-26T07:58:35;58.33;;;52.55;;
23684;SDS011;12020;51.384;6.908;2022-08-26T08:01:16;57.08;;;51.58;;
23684;SDS011;12020;51.384;6.908;2022-08-26T08:06:11;56.17;;;50.78;;
23684;SDS011;12020;51.384;6.908;2022-08-26T08:08:40;58.42;;;52.88;;
23684;SDS011;12020;51.384;6.908;2022-08-26T08:11:06;64.78;;;58.60;;
23684;SDS011;12020;51.384;6.908;2022-08-26T08:13:41;62.08;;;56.05;;
23684;SDS011;12020;51.384;6.908;2022-08-26T08:18:36;49.23;;;44.73;;
23684;SDS011;12020;51.384;6.908;2022-08-26T08:21:02;47.08;;;42.60;;
23684;SDS011;12020;51.384;6.908;2022-08-26T08:23:29;52.78;;;47.92;;
23684;SDS011;12020;51.384;6.908;2022-08-26T08:26:03;57.55;;;52.17;;
23684;SDS011;12020;51.384;6.908;2022-08-26T08:28:33;59.17;;;53.70;;
23684;SDS011;12020;51.384;6.908;2022-08-26T08:33:31;48.97;;;44.65;;
23684;SDS011;12020;51.384;6.908;2022-08-26T08:35:59;38.13;;;34.58;;
23684;SDS011;12020;51.384;6.908;2022-08-26T08:38:25;37.75;;;34.22;;
23684;SDS011;12020;51.384;6.908;2022-08-26T08:40:58;37.43;;;34.20;;
23684;SDS011;12020;51.384;6.908;2022-08-26T08:46:13;49.40;;;45.13;;
23684;SDS011;12020;51.384;6.908;2022-08-26T08:48:46;46.05;;;42.08;;
23684;SDS011;12020;51.384;6.908;2022-08-26T08:56:39;29.13;;;26.42;;
23684;SDS011;12020;51.384;6.908;2022-08-26T08:59:20;32.13;;;28.95;;
23684;SDS011;12020;51.384;6.908;2022-08-26T09:10:50;26.10;;;23.38;;
23684;SDS011;12020;51.384;6.908;2022-08-26T09:13:22;26.17;;;23.85;;
23684;SDS011;12020;51.384;6.908;2022-08-26T09:18:43;29.85;;;27.10;;
23684;SDS011;12020;51.384;6.908;2022-08-26T09:21:18;35.47;;;31.98;;
23684;SDS011;12020;51.384;6.908;2022-08-26T09:29:05;29.88;;;27.17;;
23684;SDS011;12020;51.384;6.908;2022-08-26T09:31:52;26.38;;;23.80;;
23684;SDS011;12020;51.384;6.908;2022-08-26T09:34:53;23.90;;;21.42;;
23684;SDS011;12020;51.384;6.908;2022-08-26T09:37:34;13.98;;;12.40;;
23684;SDS011;12020;51.384;6.908;2022-08-26T09:41:04;12.93;;;10.13;;
23684;SDS011;12020;51.384;6.908;2022-08-26T09:43:06;9.18;;;7.95;;
23684;SDS011;12020;51.384;6.908;2022-08-26T09:45:32;9.05;;;7.90;;
23684;SDS011;12020;51.384;6.908;2022-08-26T09:47:58;9.57;;;8.40;;
23684;SDS011;12020;51.384;6.908;2022-08-26T09:51:23;13.82;;;9.38;;
23684;SDS011;12020;51.384;6.908;2022-08-26T09:53:27;12.57;;;11.13;;
23684;SDS011;12020;51.384;6.908;2022-08-26T09:56:22;11.82;;;10.63;;
23684;SDS011;12020;51.384;6.908;2022-08-26T09:58:57;11.93;;;10.40;;
23684;SDS011;12020;51.384;6.908;2022-08-26T10:01:28;9.82;;;8.57;;
23684;SDS011;12020;51.384;6.908;2022-08-26T10:04:09;11.30;;;9.00;;
23684;SDS011;12020;51.384;6.908;2022-08-26T10:07:01;12.02;;;9.50;;
23684;SDS011;12020;51.384;6.908;2022-08-26T10:09:34;11.23;;;8.60;;
23684;SDS011;12020;51.384;6.908;2022-08-26T10:12:05;11.80;;;9.02;;
23684;SDS011;12020;51.384;6.908;2022-08-26T10:14:36;11.40;;;8.32;;
23684;SDS011;12020;51.384;6.908;2022-08-26T10:17:11;10.18;;;8.57;;
23684;SDS011;12020;51.384;6.908;2022-08-26T10:19:43;11.93;;;10.20;;
23684;SDS011;12020;51.384;6.908;2022-08-26T10:22:35;11.38;;;9.70;;
23684;SDS011;12020;51.384;6.908;2022-08-26T10:25:14;10.98;;;8.90;;
23684;SDS011;12020;51.384;6.908;2022-08-26T10:27:46;10.57;;;7.40;;
23684;SDS011;12020;51.384;6.908;2022-08-26T10:30:30;11.10;;;8.05;;
23684;SDS011;12020;51.384;6.908;2022-08-26T10:33:04;10.35;;;7.38;;
23684;SDS011;12020;51.384;6.908;2022-08-26T10:35:33;10.48;;;6.22;;
23684;SDS011;12020;51.384;6.908;2022-08-26T10:38:10;9.00;;;7.45;;
23684;SDS011;12020;51.384;6.908;2022-08-26T10:40:45;10.50;;;6.80;;
23684;SDS011;12020;51.384;6.908;2022-08-26T10:45:53;9.40;;;6.83;;
23684;SDS011;12020;51.384;6.908;2022-08-26T10:48:34;10.73;;;7.75;;
23684;SDS011;12020;51.384;6.908;2022-08-26T10:51:10;10.55;;;8.40;;
23684;SDS011;12020;51.384;6.908;2022-08-26T10:53:42;10.00;;;7.35;;
23684;SDS011;12020;51.384;6.908;2022-08-26T11:02:14;9.57;;;5.60;;
23684;SDS011;12020;51.384;6.908;2022-08-26T11:04:56;8.10;;;5.32;;
23684;SDS011;12020;51.384;6.908;2022-08-26T11:10:06;7.25;;;5.35;;
23684;SDS011;12020;51.384;6.908;2022-08-26T11:15:56;10.17;;;5.60;;
23684;SDS011;12020;51.384;6.908;2022-08-26T11:17:58;7.82;;;5.30;;
23684;SDS011;12020;51.384;6.908;2022-08-26T11:28:32;9.75;;;5.70;;
23684;SDS011;12020;51.384;6.908;2022-08-26T11:31:01;8.30;;;5.93;;
23684;SDS011;12020;51.384;6.908;2022-08-26T11:33:44;7.63;;;5.25;;
23684;SDS011;12020;51.384;6.908;2022-08-26T11:39:19;10.85;;;5.70;;
23684;SDS011;12020;51.384;6.908;2022-08-26T11:41:59;7.95;;;5.10;;
23684;SDS011;12020;51.384;6.908;2022-08-26T11:44:39;8.50;;;5.13;;
23684;SDS011;12020;51.384;6.908;2022-08-26T11:47:06;9.57;;;5.35;;
23684;SDS011;12020;51.384;6.908;2022-08-26T11:49:34;9.98;;;5.70;;
23684;SDS011;12020;51.384;6.908;2022-08-26T11:52:19;8.95;;;5.25;;
23684;SDS011;12020;51.384;6.908;2022-08-26T11:55:04;8.32;;;5.45;;
23684;SDS011;12020;51.384;6.908;2022-08-26T11:57:57;8.48;;;5.50;;
23684;SDS011;12020;51.384;6.908;2022-08-26T12:00:32;7.45;;;5.47;;
23684;SDS011;12020;51.384;6.908;2022-08-26T12:03:15;10.52;;;5.45;;
23684;SDS011;12020;51.384;6.908;2022-08-26T12:05:44;9.82;;;5.50;;
23684;SDS011;12020;51.384;6.908;2022-08-26T12:08:15;7.72;;;5.53;;
23684;SDS011;12020;51.384;6.908;2022-08-26T12:10:42;9.45;;;5.13;;
23684;SDS011;12020;51.384;6.908;2022-08-26T12:13:17;7.93;;;5.90;;
23684;SDS011;12020;51.384;6.908;2022-08-26T12:15:52;8.63;;;7.20;;
23684;SDS011;12020;51.384;6.908;2022-08-26T12:18:21;8.70;;;5.93;;
23684;SDS011;12020;51.384;6.908;2022-08-26T12:20:57;7.82;;;4.80;;
23684;SDS011;12020;51.384;6.908;2022-08-26T12:26:04;9.53;;;3.97;;
23684;SDS011;12020;51.384;6.908;2022-08-26T12:28:40;7.40;;;3.92;;
23684;SDS011;12020;51.384;6.908;2022-08-26T12:31:08;9.27;;;3.92;;
23684;SDS011;12020;51.384;6.908;2022-08-26T12:33:34;9.20;;;4.30;;
23684;SDS011;12020;51.384;6.908;2022-08-26T12:36:00;7.60;;;3.60;;
23684;SDS011;12020;51.384;6.908;2022-08-26T12:38:29;8.95;;;4.03;;
23684;SDS011;12020;51.384;6.908;2022-08-26T12:40:55;8.90;;;4.13;;
23684;SDS011;12020;51.384;6.908;2022-08-26T12:43:38;7.80;;;3.97;;
23684;SDS011;12020;51.384;6.908;2022-08-26T12:46:09;7.63;;;4.40;;
23684;SDS011;12020;51.384;6.908;2022-08-26T12:48:38;8.00;;;4.15;;
23684;SDS011;12020;51.384;6.908;2022-08-26T12:51:12;7.20;;;4.22;;
23684;SDS011;12020;51.384;6.908;2022-08-26T12:53:44;5.82;;;4.13;;
23684;SDS011;12020;51.384;6.908;2022-08-26T12:56:17;7.17;;;4.40;;
23684;SDS011;12020;51.384;6.908;2022-08-26T13:01:40;7.83;;;4.57;;
23684;SDS011;12020;51.384;6.908;2022-08-26T13:09:51;5.85;;;4.05;;
23684;SDS011;12020;51.384;6.908;2022-08-26T13:13:05;8.23;;;4.50;;
23684;SDS011;12020;51.384;6.908;2022-08-26T13:15:34;7.07;;;4.32;;
23684;SDS011;12020;51.384;6.908;2022-08-26T13:18:04;6.15;;;4.15;;
23684;SDS011;12020;51.384;6.908;2022-08-26T13:23:18;6.93;;;4.40;;
23684;SDS011;12020;51.384;6.908;2022-08-26T13:26:04;5.95;;;3.65;;
23684;SDS011;12020;51.384;6.908;2022-08-26T13:28:48;5.23;;;4.03;;
23684;SDS011;12020;51.384;6.908;2022-08-26T13:31:19;6.97;;;4.00;;
23684;SDS011;12020;51.384;6.908;2022-08-26T13:33:46;6.38;;;3.92;;
23684;SDS011;12020;51.384;6.908;2022-08-26T13:36:12;5.60;;;3.70;;
23684;SDS011;12020;51.384;6.908;2022-08-26T13:38:39;5.30;;;3.90;;
23684;SDS011;12020;51.384;6.908;2022-08-26T13:41:05;6.85;;;4.30;;
23684;SDS011;12020;51.384;6.908;2022-08-26T13:43:31;6.15;;;4.20;;
23684;SDS011;12020;51.384;6.908;2022-08-26T13:46:04;8.73;;;4.50;;
23684;SDS011;12020;51.384;6.908;2022-08-26T13:48:30;6.70;;;4.20;;
23684;SDS011;12020;51.384;6.908;2022-08-26T13:50:58;5.37;;;4.00;;
23684;SDS011;12020;51.384;6.908;2022-08-26T13:53:24;8.47;;;4.40;;
23684;SDS011;12020;51.384;6.908;2022-08-26T13:55:50;6.70;;;4.00;;
23684;SDS011;12020;51.384;6.908;2022-08-26T13:58:16;6.63;;;4.23;;
23684;SDS011;12020;51.384;6.908;2022-08-26T14:03:39;6.28;;;4.25;;
23684;SDS011;12020;51.384;6.908;2022-08-26T14:06:08;5.17;;;3.90;;
23684;SDS011;12020;51.384;6.908;2022-08-26T14:08:44;7.00;;;4.22;;
23684;SDS011;12020;51.384;6.908;2022-08-26T14:11:10;5.28;;;3.85;;
23684;SDS011;12020;51.384;6.908;2022-08-26T14:13:36;5.50;;;4.35;;
23684;SDS011;12020;51.384;6.908;2022-08-26T14:16:03;5.30;;;3.78;;
23684;SDS011;12020;51.384;6.908;2022-08-26T14:18:33;5.70;;;3.63;;
23684;SDS011;12020;51.384;6.908;2022-08-26T14:21:03;8.20;;;3.28;;
23684;SDS011;12020;51.384;6.908;2022-08-26T14:23:31;6.57;;;3.40;;
23684;SDS011;12020;51.384;6.908;2022-08-26T14:25:57;6.00;;;3.05;;
23684;SDS011;12020;51.384;6.908;2022-08-26T14:28:24;6.10;;;3.30;;
23684;SDS011;12020;51.384;6.908;2022-08-26T14:30:50;5.97;;;3.60;;
23684;SDS011;12020;51.384;6.908;2022-08-26T14:33:25;5.30;;;3.40;;
23684;SDS011;12020;51.384;6.908;2022-08-26T14:35:56;4.93;;;3.58;;
23684;SDS011;12020;51.384;6.908;2022-08-26T14:38:42;5.25;;;3.17;;
23684;SDS011;12020;51.384;6.908;2022-08-26T14:41:09;5.75;;;2.95;;
23684;SDS011;12020;51.384;6.908;2022-08-26T14:43:39;4.43;;;2.90;;
23684;SDS011;12020;51.384;6.908;2022-08-26T14:46:13;7.43;;;3.30;;
23684;SDS011;12020;51.384;6.908;2022-08-26T14:48:40;5.43;;;2.85;;
23684;SDS011;12020;51.384;6.908;2022-08-26T14:51:06;4.82;;;2.85;;
23684;SDS011;12020;51.384;6.908;2022-08-26T14:53:32;6.65;;;2.75;;
23684;SDS011;12020;51.384;6.908;2022-08-26T14:56:17;5.55;;;2.95;;
23684;SDS011;12020;51.384;6.908;2022-08-26T14:58:43;7.00;;;3.38;;
23684;SDS011;12020;51.384;6.908;2022-08-26T15:01:10;6.72;;;3.38;;
23684;SDS011;12020;51.384;6.908;2022-08-26T15:03:37;7.78;;;3.80;;
23684;SDS011;12020;51.384;6.908;2022-08-26T15:06:03;7.90;;;3.67;;
23684;SDS011;12020;51.384;6.908;2022-08-26T15:08:29;7.30;;;3.63;;
23684;SDS011;12020;51.384;6.908;2022-08-26T15:11:00;5.50;;;3.40;;
23684;SDS011;12020;51.384;6.908;2022-08-26T15:13:27;6.95;;;3.88;;
23684;SDS011;12020;51.384;6.908;2022-08-26T15:15:55;7.38;;;3.60;;
23684;SDS011;12020;51.384;6.908;2022-08-26T15:18:21;5.43;;;3.45;;
23684;SDS011;12020;51.384;6.908;2022-08-26T15:20:48;7.50;;;3.60;;
23684;SDS011;12020;51.384;6.908;2022-08-26T15:23:14;5.25;;;3.25;;
23684;SDS011;12020;51.384;6.908;2022-08-26T15:25:55;5.63;;;2.95;;
23684;SDS011;12020;51.384;6.908;2022-08-26T15:28:22;8.97;;;2.80;;
23684;SDS011;12020;51.384;6.908;2022-08-26T15:30:49;7.97;;;2.50;;
23684;SDS011;12020;51.384;6.908;2022-08-26T15:33:16;6.93;;;2.30;;
23684;SDS011;12020;51.384;6.908;2022-08-26T15:35:43;7.32;;;2.50;;
23684;SDS011;12020;51.384;6.908;2022-08-26T15:38:10;5.95;;;2.40;;
23684;SDS011;12020;51.384;6.908;2022-08-26T15:40:36;6.45;;;2.45;;
23684;SDS011;12020;51.384;6.908;2022-08-26T15:43:03;6.50;;;2.85;;
23684;SDS011;12020;51.384;6.908;2022-08-26T15:45:33;4.15;;;2.38;;
23684;SDS011;12020;51.384;6.908;2022-08-26T15:47:59;8.00;;;2.90;;
23684;SDS011;12020;51.384;6.908;2022-08-26T15:50:27;5.97;;;3.03;;
23684;SDS011;12020;51.384;6.908;2022-08-26T15:52:54;5.65;;;2.80;;
23684;SDS011;12020;51.384;6.908;2022-08-26T15:55:23;5.57;;;3.03;;
23684;SDS011;12020;51.384;6.908;2022-08-26T15:57:50;7.20;;;3.03;;
23684;SDS011;12020;51.384;6.908;2022-08-26T16:00:16;4.63;;;3.03;;
23684;SDS011;12020;51.384;6.908;2022-08-26T16:02:42;5.25;;;3.28;;
23684;SDS011;12020;51.384;6.908;2022-08-26T16:05:08;7.15;;;3.20;;
23684;SDS011;12020;51.384;6.908;2022-08-26T16:07:34;6.35;;;3.80;;
23684;SDS011;12020;51.384;6.908;2022-08-26T16:12:30;5.63;;;3.50;;
23684;SDS011;12020;51.384;6.908;2022-08-26T16:15:02;4.17;;;3.00;;
23684;SDS011;12020;51.384;6.908;2022-08-26T16:17:29;7.47;;;3.30;;
23684;SDS011;12020;51.384;6.908;2022-08-26T16:22:26;6.88;;;3.00;;
23684;SDS011;12020;51.384;6.908;2022-08-26T16:24:56;4.70;;;2.85;;
23684;SDS011;12020;51.384;6.908;2022-08-26T16:27:23;6.03;;;2.90;;
23684;SDS011;12020;51.384;6.908;2022-08-26T16:29:50;6.82;;;3.00;;